sensor_id;sensor_type;location;lat;lon;timestamp;P1;durP1;ratioP1;P2;durP2;ratioP2
63621;SDS011;49770;47.544;19.074;2023-01-16T05:15:44;81.93;;;34.15;;
63621;SDS011;49770;47.544;19.074;2023-01-16T05:18:48;82.85;;;34.78;;
63621;SDS011;49770;47.544;19.074;2023-01-16T05:21:50;73.87;;;33.33;;
63621;SDS011;49770;47.544;19.074;2023-01-16T05:24:53;73.60;;;34.50;;
63621;SDS011;49770;47.544;19.074;2023-01-16T05:27:56;64.45;;;32.10;;
63621;SDS011;49770;47.544;19.074;2023-01-16T05:30:59;67.82;;;33.42;;
63621;SDS011;49770;47.544;19.074;2023-01-16T05:34:02;67.60;;;33.83;;
63621;SDS011;49770;47.544;19.074;2023-01-16T05:37:05;63.90;;;32.97;;
63621;SDS011;49770;47.544;19.074;2023-01-16T05:40:09;61.58;;;31.02;;
63621;SDS011;49770;47.544;19.074;2023-01-16T05:43:13;59.67;;;30.27;;
63621;SDS011;49770;47.544;19.074;2023-01-16T05:46:16;56.10;;;29.17;;
63621;SDS011;49770;47.544;19.074;2023-01-16T05:49:20;61.88;;;29.85;;
63621;SDS011;49770;47.544;19.074;2023-01-16T05:52:22;70.93;;;31.25;;
63621;SDS011;49770;47.544;19.074;2023-01-16T05:55:25;67.90;;;32.40;;
63621;SDS011;49770;47.544;19.074;2023-01-16T05:58:28;77.00;;;35.47;;
63621;SDS011;49770;47.544;19.074;2023-01-16T06:01:31;71.47;;;34.15;;
63621;SDS011;49770;47.544;19.074;2023-01-16T06:04:33;74.45;;;34.83;;
63621;SDS011;49770;47.544;19.074;2023-01-16T06:07:36;68.75;;;34.67;;
63621;SDS011;49770;47.544;19.074;2023-01-16T06:10:39;69.68;;;35.28;;
63621;SDS011;49770;47.544;19.074;2023-01-16T06:13:42;67.68;;;34.47;;
63621;SDS011;49770;47.544;19.074;2023-01-16T06:16:45;65.57;;;33.17;;
63621;SDS011;49770;47.544;19.074;2023-01-16T06:19:48;60.08;;;30.95;;
63621;SDS011;49770;47.544;19.074;2023-01-16T06:22:51;62.13;;;30.00;;
63621;SDS011;49770;47.544;19.074;2023-01-16T06:25:53;57.62;;;28.77;;
63621;SDS011;49770;47.544;19.074;2023-01-16T06:28:56;62.80;;;30.08;;
63621;SDS011;49770;47.544;19.074;2023-01-16T06:31:59;58.42;;;29.27;;
63621;SDS011;49770;47.544;19.074;2023-01-16T06:35:02;55.08;;;27.95;;
63621;SDS011;49770;47.544;19.074;2023-01-16T06:38:05;57.45;;;27.65;;
63621;SDS011;49770;47.544;19.074;2023-01-16T06:41:08;49.42;;;25.88;;
63621;SDS011;49770;47.544;19.074;2023-01-16T06:44:10;51.20;;;26.12;;
63621;SDS011;49770;47.544;19.074;2023-01-16T06:47:13;52.45;;;27.17;;
63621;SDS011;49770;47.544;19.074;2023-01-16T06:50:18;56.40;;;27.25;;
63621;SDS011;49770;47.544;19.074;2023-01-16T06:53:21;45.92;;;24.35;;
63621;SDS011;49770;47.544;19.074;2023-01-16T06:56:24;47.72;;;24.40;;
63621;SDS011;49770;47.544;19.074;2023-01-16T06:59:26;48.72;;;25.02;;
63621;SDS011;49770;47.544;19.074;2023-01-16T07:02:29;56.20;;;28.65;;
63621;SDS011;49770;47.544;19.074;2023-01-16T07:05:32;53.85;;;26.23;;
63621;SDS011;49770;47.544;19.074;2023-01-16T07:08:35;52.83;;;26.52;;
63621;SDS011;49770;47.544;19.074;2023-01-16T07:11:38;52.08;;;24.95;;
63621;SDS011;49770;47.544;19.074;2023-01-16T07:14:41;48.70;;;25.55;;
63621;SDS011;49770;47.544;19.074;2023-01-16T07:18:02;47.58;;;25.20;;
63621;SDS011;49770;47.544;19.074;2023-01-16T07:21:25;51.00;;;25.48;;
63621;SDS011;49770;47.544;19.074;2023-01-16T07:24:48;44.33;;;23.62;;
63621;SDS011;49770;47.544;19.074;2023-01-16T07:27:51;48.80;;;23.92;;
63621;SDS011;49770;47.544;19.074;2023-01-16T07:30:55;49.05;;;24.08;;
63621;SDS011;49770;47.544;19.074;2023-01-16T07:34:00;47.92;;;23.08;;
63621;SDS011;49770;47.544;19.074;2023-01-16T07:37:03;47.47;;;22.85;;
63621;SDS011;49770;47.544;19.074;2023-01-16T07:40:09;46.60;;;23.38;;
63621;SDS011;49770;47.544;19.074;2023-01-16T07:43:13;46.47;;;23.42;;
63621;SDS011;49770;47.544;19.074;2023-01-16T07:46:15;47.85;;;22.73;;
63621;SDS011;49770;47.544;19.074;2023-01-16T07:49:18;51.20;;;24.00;;
63621;SDS011;49770;47.544;19.074;2023-01-16T07:52:21;50.58;;;23.98;;
63621;SDS011;49770;47.544;19.074;2023-01-16T07:55:24;50.08;;;22.70;;
63621;SDS011;49770;47.544;19.074;2023-01-16T07:58:27;47.88;;;23.58;;
63621;SDS011;49770;47.544;19.074;2023-01-16T08:01:32;51.17;;;24.48;;
63621;SDS011;49770;47.544;19.074;2023-01-16T08:04:35;55.42;;;25.33;;
63621;SDS011;49770;47.544;19.074;2023-01-16T08:07:38;50.00;;;23.08;;
63621;SDS011;49770;47.544;19.074;2023-01-16T08:10:41;49.80;;;24.48;;
63621;SDS011;49770;47.544;19.074;2023-01-16T08:13:44;47.03;;;23.08;;
63621;SDS011;49770;47.544;19.074;2023-01-16T08:16:47;45.78;;;22.33;;
63621;SDS011;49770;47.544;19.074;2023-01-16T08:19:50;44.40;;;22.02;;
63621;SDS011;49770;47.544;19.074;2023-01-16T08:22:53;41.63;;;21.27;;
63621;SDS011;49770;47.544;19.074;2023-01-16T08:25:57;44.13;;;21.58;;
63621;SDS011;49770;47.544;19.074;2023-01-16T08:29:02;42.20;;;20.92;;
63621;SDS011;49770;47.544;19.074;2023-01-16T08:32:05;36.47;;;19.15;;
63621;SDS011;49770;47.544;19.074;2023-01-16T08:35:09;37.83;;;19.08;;
63621;SDS011;49770;47.544;19.074;2023-01-16T08:38:16;34.80;;;17.87;;
63621;SDS011;49770;47.544;19.074;2023-01-16T08:41:19;32.15;;;17.45;;
63621;SDS011;49770;47.544;19.074;2023-01-16T08:44:40;32.72;;;17.80;;
63621;SDS011;49770;47.544;19.074;2023-01-16T08:48:02;34.28;;;18.27;;
63621;SDS011;49770;47.544;19.074;2023-01-16T08:51:24;30.80;;;17.20;;
63621;SDS011;49770;47.544;19.074;2023-01-16T08:54:27;32.03;;;18.15;;
63621;SDS011;49770;47.544;19.074;2023-01-16T08:57:30;33.67;;;18.67;;
63621;SDS011;49770;47.544;19.074;2023-01-16T09:00:37;34.53;;;18.45;;
63621;SDS011;49770;47.544;19.074;2023-01-16T09:03:40;36.10;;;17.60;;
63621;SDS011;49770;47.544;19.074;2023-01-16T09:06:43;34.03;;;17.95;;
63621;SDS011;49770;47.544;19.074;2023-01-16T09:09:46;34.75;;;18.15;;
63621;SDS011;49770;47.544;19.074;2023-01-16T09:12:49;37.20;;;19.35;;
63621;SDS011;49770;47.544;19.074;2023-01-16T09:16:24;35.03;;;18.75;;
63621;SDS011;49770;47.544;19.074;2023-01-16T09:19:27;30.85;;;17.75;;
63621;SDS011;49770;47.544;19.074;2023-01-16T09:22:30;36.17;;;19.20;;
63621;SDS011;49770;47.544;19.074;2023-01-16T09:25:34;38.95;;;20.23;;
63621;SDS011;49770;47.544;19.074;2023-01-16T09:28:36;43.13;;;20.20;;
63621;SDS011;49770;47.544;19.074;2023-01-16T09:31:40;37.20;;;19.77;;
63621;SDS011;49770;47.544;19.074;2023-01-16T09:34:42;35.78;;;19.92;;
63621;SDS011;49770;47.544;19.074;2023-01-16T09:37:46;40.60;;;21.23;;
63621;SDS011;49770;47.544;19.074;2023-01-16T09:40:52;38.00;;;19.75;;
63621;SDS011;49770;47.544;19.074;2023-01-16T09:43:58;37.25;;;19.75;;
63621;SDS011;49770;47.544;19.074;2023-01-16T09:47:02;38.42;;;19.90;;
63621;SDS011;49770;47.544;19.074;2023-01-16T09:57:14;42.47;;;20.37;;
63621;SDS011;49770;47.544;19.074;2023-01-16T10:00:38;40.72;;;20.08;;
63621;SDS011;49770;47.544;19.074;2023-01-16T10:03:41;47.83;;;20.73;;
63621;SDS011;49770;47.544;19.074;2023-01-16T10:06:48;42.50;;;19.98;;
63621;SDS011;49770;47.544;19.074;2023-01-16T10:20:34;44.00;;;19.95;;
63621;SDS011;49770;47.544;19.074;2023-01-16T10:24:00;45.75;;;20.62;;
63621;SDS011;49770;47.544;19.074;2023-01-16T10:30:47;40.15;;;18.45;;
63621;SDS011;49770;47.544;19.074;2023-01-16T10:34:04;42.55;;;20.20;;
63621;SDS011;49770;47.544;19.074;2023-01-16T10:37:13;41.65;;;19.65;;
63621;SDS011;49770;47.544;19.074;2023-01-16T10:40:17;43.33;;;20.70;;
63621;SDS011;49770;47.544;19.074;2023-01-16T10:43:32;46.05;;;21.83;;
63621;SDS011;49770;47.544;19.074;2023-01-16T10:46:56;45.53;;;20.92;;
63621;SDS011;49770;47.544;19.074;2023-01-16T10:50:18;41.90;;;20.95;;
63621;SDS011;49770;47.544;19.074;2023-01-16T10:53:38;46.20;;;21.27;;
63621;SDS011;49770;47.544;19.074;2023-01-16T10:56:41;43.40;;;21.35;;
63621;SDS011;49770;47.544;19.074;2023-01-16T10:59:44;44.00;;;20.17;;
63621;SDS011;49770;47.544;19.074;2023-01-16T11:02:49;43.65;;;21.12;;
63621;SDS011;49770;47.544;19.074;2023-01-16T11:05:54;42.55;;;20.73;;
63621;SDS011;49770;47.544;19.074;2023-01-16T11:12:26;44.90;;;21.33;;
63621;SDS011;49770;47.544;19.074;2023-01-16T11:19:47;42.30;;;20.92;;
63621;SDS011;49770;47.544;19.074;2023-01-16T11:22:54;42.20;;;20.25;;
63621;SDS011;49770;47.544;19.074;2023-01-16T11:26:01;42.55;;;21.15;;
63621;SDS011;49770;47.544;19.074;2023-01-16T11:29:04;44.47;;;20.77;;
63621;SDS011;49770;47.544;19.074;2023-01-16T11:32:08;44.85;;;20.95;;
63621;SDS011;49770;47.544;19.074;2023-01-16T11:35:15;45.33;;;21.55;;
63621;SDS011;49770;47.544;19.074;2023-01-16T11:38:20;48.78;;;21.48;;
63621;SDS011;49770;47.544;19.074;2023-01-16T11:41:34;49.85;;;21.20;;
63621;SDS011;49770;47.544;19.074;2023-01-16T11:44:39;49.78;;;22.08;;
63621;SDS011;49770;47.544;19.074;2023-01-16T11:48:04;43.10;;;20.30;;
63621;SDS011;49770;47.544;19.074;2023-01-16T11:51:27;44.72;;;20.92;;
63621;SDS011;49770;47.544;19.074;2023-01-16T11:54:32;44.30;;;21.40;;
63621;SDS011;49770;47.544;19.074;2023-01-16T12:07:24;47.55;;;22.50;;
63621;SDS011;49770;47.544;19.074;2023-01-16T12:20:52;44.55;;;20.95;;
63621;SDS011;49770;47.544;19.074;2023-01-16T12:27:37;45.67;;;21.83;;
63621;SDS011;49770;47.544;19.074;2023-01-16T12:38:09;42.70;;;20.80;;
63621;SDS011;49770;47.544;19.074;2023-01-16T12:45:03;45.20;;;21.70;;
63621;SDS011;49770;47.544;19.074;2023-01-16T12:58:51;46.72;;;20.30;;
63621;SDS011;49770;47.544;19.074;2023-01-16T13:05:19;43.63;;;20.73;;
63621;SDS011;49770;47.544;19.074;2023-01-16T13:08:31;41.63;;;20.93;;
63621;SDS011;49770;47.544;19.074;2023-01-16T13:12:29;46.83;;;21.77;;
63621;SDS011;49770;47.544;19.074;2023-01-16T13:15:24;43.90;;;19.60;;
63621;SDS011;49770;47.544;19.074;2023-01-16T13:18:45;44.83;;;21.60;;
63621;SDS011;49770;47.544;19.074;2023-01-16T13:22:00;44.50;;;22.13;;
63621;SDS011;49770;47.544;19.074;2023-01-16T13:25:19;47.50;;;23.70;;
63621;SDS011;49770;47.544;19.074;2023-01-16T13:32:19;47.83;;;23.42;;
63621;SDS011;49770;47.544;19.074;2023-01-16T14:01:29;46.85;;;22.27;;
63621;SDS011;49770;47.544;19.074;2023-01-16T14:04:34;44.85;;;23.12;;
63621;SDS011;49770;47.544;19.074;2023-01-16T14:21:04;42.28;;;22.33;;
63621;SDS011;49770;47.544;19.074;2023-01-16T14:24:19;43.92;;;21.95;;
63621;SDS011;49770;47.544;19.074;2023-01-16T14:27:29;43.10;;;21.90;;
63621;SDS011;49770;47.544;19.074;2023-01-16T14:30:36;44.20;;;22.08;;
63621;SDS011;49770;47.544;19.074;2023-01-16T14:33:43;40.70;;;21.12;;
63621;SDS011;49770;47.544;19.074;2023-01-16T14:36:50;42.70;;;21.55;;
63621;SDS011;49770;47.544;19.074;2023-01-16T14:39:55;41.22;;;20.10;;
63621;SDS011;49770;47.544;19.074;2023-01-16T14:43:00;41.08;;;21.17;;
63621;SDS011;49770;47.544;19.074;2023-01-16T14:46:25;39.55;;;20.83;;
63621;SDS011;49770;47.544;19.074;2023-01-16T14:49:58;42.22;;;20.27;;
63621;SDS011;49770;47.544;19.074;2023-01-16T14:53:26;44.50;;;21.92;;
63621;SDS011;49770;47.544;19.074;2023-01-16T14:56:50;39.80;;;20.67;;
63621;SDS011;49770;47.544;19.074;2023-01-16T15:00:07;41.93;;;20.53;;
63621;SDS011;49770;47.544;19.074;2023-01-16T15:03:16;41.37;;;20.37;;
63621;SDS011;49770;47.544;19.074;2023-01-16T15:06:31;45.33;;;20.83;;
63621;SDS011;49770;47.544;19.074;2023-01-16T15:09:42;40.47;;;20.65;;
63621;SDS011;49770;47.544;19.074;2023-01-16T15:12:46;39.08;;;20.05;;
63621;SDS011;49770;47.544;19.074;2023-01-16T15:15:59;43.60;;;20.67;;
63621;SDS011;49770;47.544;19.074;2023-01-16T15:19:03;44.15;;;21.15;;
63621;SDS011;49770;47.544;19.074;2023-01-16T15:22:42;40.55;;;20.05;;
63621;SDS011;49770;47.544;19.074;2023-01-16T15:29:50;40.83;;;19.98;;
63621;SDS011;49770;47.544;19.074;2023-01-16T15:32:55;41.42;;;20.62;;
63621;SDS011;49770;47.544;19.074;2023-01-16T15:36:24;42.15;;;20.35;;
63621;SDS011;49770;47.544;19.074;2023-01-16T15:39:38;41.63;;;20.27;;
63621;SDS011;49770;47.544;19.074;2023-01-16T15:42:45;45.03;;;20.73;;
63621;SDS011;49770;47.544;19.074;2023-01-16T15:46:13;46.03;;;21.23;;
63621;SDS011;49770;47.544;19.074;2023-01-16T15:53:31;41.15;;;20.65;;
63621;SDS011;49770;47.544;19.074;2023-01-16T15:56:42;45.67;;;22.05;;
63621;SDS011;49770;47.544;19.074;2023-01-16T15:59:57;42.53;;;21.60;;
63621;SDS011;49770;47.544;19.074;2023-01-16T16:06:10;41.05;;;20.17;;
63621;SDS011;49770;47.544;19.074;2023-01-16T16:09:18;38.92;;;20.20;;
63621;SDS011;49770;47.544;19.074;2023-01-16T16:12:24;45.72;;;19.62;;
63621;SDS011;49770;47.544;19.074;2023-01-16T16:15:36;40.55;;;19.87;;
63621;SDS011;49770;47.544;19.074;2023-01-16T16:22:02;37.90;;;19.17;;
63621;SDS011;49770;47.544;19.074;2023-01-16T16:25:35;40.88;;;19.77;;
63621;SDS011;49770;47.544;19.074;2023-01-16T16:28:39;36.38;;;20.65;;
63621;SDS011;49770;47.544;19.074;2023-01-16T16:31:43;42.13;;;20.80;;
63621;SDS011;49770;47.544;19.074;2023-01-16T16:34:54;45.50;;;21.92;;
63621;SDS011;49770;47.544;19.074;2023-01-16T16:37:59;44.03;;;20.48;;
63621;SDS011;49770;47.544;19.074;2023-01-16T16:44:09;40.40;;;20.33;;
63621;SDS011;49770;47.544;19.074;2023-01-16T16:47:26;41.00;;;19.90;;
